createdAt,value
2023-04-14T00:00:41.097Z,10.18
2023-04-14T00:02:07.664Z,10.43
2023-04-14T00:03:32.580Z,10.93
2023-04-14T00:04:56.983Z,10.63
2023-04-14T00:06:23.194Z,11.70
2023-04-14T00:07:45.133Z,11.05
2023-04-14T00:14:18.245Z,9.30
2023-04-14T00:15:41.940Z,9.80
2023-04-14T00:17:03.423Z,9.75
2023-04-14T00:18:25.743Z,9.13
2023-04-14T00:19:49.907Z,8.82
2023-04-14T00:21:11.009Z,9.30
2023-04-14T00:22:33.432Z,8.95
2023-04-14T00:23:56.901Z,10.27
2023-04-14T00:25:19.405Z,9.20
2023-04-14T00:26:41.896Z,9.02
2023-04-14T00:28:04.267Z,9.15
2023-04-14T00:29:27.930Z,9.10
2023-04-14T00:30:50.537Z,8.57
2023-04-14T00:32:13.487Z,8.10
2023-04-14T00:33:40.376Z,7.57
2023-04-14T00:35:05.649Z,8.48
2023-04-14T00:36:31.476Z,8.00
2023-04-14T00:37:58.653Z,8.98
2023-04-14T00:39:27.346Z,8.07
2023-04-14T00:40:54.086Z,8.43
2023-04-14T00:42:28.327Z,8.07
2023-04-14T00:43:54.700Z,8.15
2023-04-14T00:45:21.508Z,8.35
2023-04-14T00:46:47.835Z,8.10
2023-04-14T00:48:13.245Z,8.77
2023-04-14T00:49:36.000Z,8.63
2023-04-14T00:51:03.993Z,6.97
2023-04-14T00:52:27.507Z,7.88
2023-04-14T00:53:51.702Z,8.20
2023-04-14T00:55:16.704Z,8.20
2023-04-14T00:56:43.235Z,8.35
2023-04-14T00:58:07.684Z,7.65
2023-04-14T00:59:30.012Z,7.22
2023-04-14T01:00:55.785Z,8.00
2023-04-14T01:02:17.456Z,8.00
2023-04-14T01:03:40.297Z,8.68
2023-04-14T01:05:02.803Z,8.45
2023-04-14T01:06:27.314Z,8.35
2023-04-14T01:07:51.912Z,8.35
2023-04-14T01:09:13.996Z,7.90
2023-04-14T01:12:26.117Z,7.57
2023-04-14T01:13:59.618Z,8.52
2023-04-14T01:15:31.678Z,8.20
2023-04-14T01:17:02.316Z,8.70
2023-04-14T01:18:42.401Z,8.38
2023-04-14T01:20:19.867Z,9.55
2023-04-14T01:21:47.612Z,8.45
2023-04-14T01:23:14.506Z,7.35
2023-04-14T01:25:03.524Z,8.38
2023-04-14T01:26:31.294Z,8.02
2023-04-14T01:28:10.116Z,8.90
2023-04-14T01:30:03.227Z,8.50
2023-04-14T01:31:32.132Z,8.73
2023-04-14T01:32:58.294Z,7.53
2023-04-14T01:34:29.093Z,8.68
2023-04-14T01:35:58.767Z,8.30
2023-04-14T01:37:31.737Z,9.32
2023-04-14T01:38:56.131Z,8.82
2023-04-14T01:40:21.025Z,9.43
2023-04-14T01:41:49.975Z,9.32
2023-04-14T01:43:17.738Z,9.73
2023-04-14T01:44:42.043Z,9.52
2023-04-14T01:46:07.557Z,8.57
2023-04-14T01:47:31.576Z,9.13
2023-04-14T01:48:53.307Z,9.63
2023-04-14T01:50:17.794Z,9.20
2023-04-14T01:51:41.921Z,9.82
2023-04-14T01:53:06.629Z,8.25
2023-04-14T01:54:30.981Z,9.20
2023-04-14T01:55:53.654Z,9.55
2023-04-14T01:57:23.026Z,9.13
2023-04-14T01:58:49.952Z,8.52
2023-04-14T02:00:14.608Z,10.00
2023-04-14T02:01:41.851Z,9.65
2023-04-14T02:03:07.857Z,9.70
2023-04-14T02:04:36.419Z,10.10
2023-04-14T02:06:00.103Z,9.70
2023-04-14T02:07:23.046Z,10.07
2023-04-14T02:08:46.128Z,10.27
2023-04-14T02:10:12.236Z,10.10
2023-04-14T02:11:44.374Z,9.55
2023-04-14T02:13:10.025Z,9.60
2023-04-14T02:14:36.460Z,9.60
2023-04-14T02:16:00.946Z,8.68
2023-04-14T02:17:33.561Z,8.43
2023-04-14T02:19:01.041Z,9.23
2023-04-14T02:20:22.817Z,9.07
2023-04-14T02:21:46.443Z,10.15
2023-04-14T02:23:10.809Z,9.27
2023-04-14T02:24:39.408Z,9.27
2023-04-14T02:26:07.140Z,9.70
2023-04-14T02:27:35.273Z,9.23
2023-04-14T02:29:08.749Z,9.07
2023-04-14T02:30:40.357Z,9.35
2023-04-14T02:32:06.014Z,9.05
2023-04-14T02:33:32.995Z,10.00
2023-04-14T02:35:13.764Z,10.30
2023-04-14T02:36:40.709Z,10.15
2023-04-14T02:38:38.006Z,10.20
2023-04-14T02:40:15.153Z,10.68
2023-04-14T02:41:55.007Z,10.48
2023-04-14T02:43:20.952Z,10.07
2023-04-14T02:44:48.157Z,12.43
2023-04-14T02:46:13.171Z,11.63
2023-04-14T02:47:39.031Z,11.73
2023-04-14T02:49:06.322Z,10.98
2023-04-14T02:50:33.628Z,10.68
2023-04-14T02:52:06.747Z,11.48
2023-04-14T02:53:28.865Z,11.45
2023-04-14T02:55:05.422Z,11.43
2023-04-14T02:56:28.975Z,11.95
2023-04-14T02:57:52.467Z,13.25
2023-04-14T02:59:22.287Z,13.07
2023-04-14T03:00:52.461Z,11.48
2023-04-14T03:02:18.261Z,12.48
2023-04-14T03:03:45.884Z,12.82
2023-04-14T03:05:19.766Z,12.32
2023-04-14T03:07:05.192Z,11.98
2023-04-14T03:08:28.850Z,12.30
2023-04-14T03:09:50.964Z,12.90
2023-04-14T03:11:18.144Z,12.32
2023-04-14T03:12:42.524Z,14.07
2023-04-14T03:14:06.796Z,13.52
2023-04-14T03:15:29.835Z,12.45
2023-04-14T03:16:56.356Z,13.52
2023-04-14T03:18:24.192Z,13.75
2023-04-14T03:19:48.759Z,14.07
2023-04-14T03:21:11.688Z,13.85
2023-04-14T03:22:41.010Z,13.65
2023-04-14T03:24:07.464Z,13.00
2023-04-14T03:25:30.729Z,13.20
2023-04-14T03:26:58.184Z,13.15
2023-04-14T03:28:23.194Z,13.32
2023-04-14T03:29:49.167Z,14.00
2023-04-14T03:31:11.968Z,13.60
2023-04-14T03:32:43.762Z,13.57
2023-04-14T03:34:10.497Z,13.40
2023-04-14T03:35:38.031Z,13.52
2023-04-14T03:37:01.256Z,14.13
2023-04-14T03:38:29.153Z,15.15
2023-04-14T03:40:00.793Z,14.20
2023-04-14T03:41:27.666Z,14.38
2023-04-14T03:42:52.742Z,14.43
2023-04-14T03:44:19.731Z,15.88
2023-04-14T03:45:47.775Z,15.52
2023-04-14T03:47:12.927Z,16.00
2023-04-14T03:48:44.570Z,14.80
2023-04-14T03:50:12.429Z,14.82
2023-04-14T03:51:40.231Z,16.00
2023-04-14T03:53:02.029Z,16.17
2023-04-14T03:54:30.676Z,14.65
2023-04-14T03:55:54.365Z,15.50
2023-04-14T03:57:21.335Z,16.05
2023-04-14T04:00:48.047Z,14.65
2023-04-14T04:02:11.318Z,16.58
2023-04-14T04:03:37.079Z,16.08
2023-04-14T04:05:02.178Z,16.50
2023-04-14T04:06:27.172Z,18.30
2023-04-14T04:07:51.959Z,17.45
2023-04-14T04:09:16.072Z,16.58
2023-04-14T04:10:42.279Z,17.52
2023-04-14T04:12:07.457Z,18.67
2023-04-14T04:13:29.852Z,18.48
2023-04-14T04:14:55.005Z,17.33
2023-04-14T04:16:18.801Z,17.65
2023-04-14T04:17:47.215Z,17.38
2023-04-14T04:19:14.240Z,17.15
2023-04-14T04:20:42.214Z,17.40
2023-04-14T04:22:14.098Z,18.33
2023-04-14T04:24:23.447Z,17.70
2023-04-14T04:27:24.469Z,17.75
2023-04-14T04:29:35.724Z,18.48
2023-04-14T04:37:12.210Z,21.02
2023-04-14T04:38:39.518Z,22.45
2023-04-14T04:46:46.282Z,23.20
2023-04-14T04:51:35.926Z,23.92
2023-04-14T04:52:57.933Z,25.13
2023-04-14T04:54:20.632Z,27.23
2023-04-14T04:55:43.538Z,25.05
2023-04-14T04:57:04.813Z,24.17
2023-04-14T04:58:28.777Z,26.02
2023-04-14T04:59:55.393Z,26.75
2023-04-14T05:01:24.692Z,27.77
2023-04-14T05:06:04.334Z,25.23
2023-04-14T05:07:30.344Z,25.88
2023-04-14T05:08:58.713Z,25.27
2023-04-14T05:10:28.805Z,26.80
2023-04-14T05:12:09.736Z,27.38
2023-04-14T05:13:35.086Z,28.85
2023-04-14T05:20:34.324Z,26.33
2023-04-14T05:22:04.830Z,28.60
2023-04-14T05:23:31.337Z,27.10
2023-04-14T05:25:02.175Z,28.42
2023-04-14T05:26:51.213Z,28.23
2023-04-14T05:30:36.299Z,27.77
2023-04-14T05:32:02.254Z,28.27
2023-04-14T05:33:50.379Z,29.33
2023-04-14T05:35:12.839Z,29.75
2023-04-14T05:37:02.760Z,28.35
2023-04-14T05:38:29.446Z,29.17
2023-04-14T05:39:50.829Z,28.85
2023-04-14T05:41:13.350Z,29.67
2023-04-14T05:42:35.588Z,30.08
2023-04-14T05:43:57.748Z,31.88
2023-04-14T05:45:20.368Z,29.80
2023-04-14T05:46:42.604Z,28.95
2023-04-14T05:48:07.154Z,30.08
2023-04-14T05:49:32.202Z,30.23
2023-04-14T05:50:54.583Z,28.23
2023-04-14T05:52:17.120Z,28.80
2023-04-14T05:53:40.911Z,29.77
2023-04-14T05:55:18.573Z,27.88
2023-04-14T05:56:46.851Z,29.40
2023-04-14T05:58:12.481Z,29.75
2023-04-14T06:00:03.428Z,28.52
2023-04-14T06:01:38.255Z,26.23
2023-04-14T06:03:01.638Z,28.80
2023-04-14T06:04:24.493Z,27.63
2023-04-14T06:05:48.404Z,29.20
2023-04-14T06:07:10.702Z,30.63
2023-04-14T06:08:58.804Z,30.15
2023-04-14T06:10:24.960Z,31.70
2023-04-14T06:11:52.887Z,33.28
2023-04-14T06:13:20.250Z,31.98
2023-04-14T06:14:48.837Z,33.03
2023-04-14T06:16:41.482Z,34.08
2023-04-14T06:18:25.763Z,31.67
2023-04-14T06:19:49.364Z,33.03
2023-04-14T06:21:11.878Z,33.33
2023-04-14T06:22:34.324Z,31.98
2023-04-14T06:23:58.290Z,32.50
2023-04-14T06:25:20.709Z,33.67
2023-04-14T06:26:43.976Z,32.33
2023-04-14T06:28:09.900Z,31.88
2023-04-14T06:29:32.173Z,32.30
2023-04-14T06:30:54.826Z,32.05
2023-04-14T06:32:16.853Z,29.52
2023-04-14T06:33:39.315Z,31.25
2023-04-14T06:35:01.677Z,32.03
2023-04-14T06:36:25.087Z,29.60
2023-04-14T06:37:47.630Z,30.90
2023-04-14T06:39:11.298Z,31.02
2023-04-14T06:40:35.895Z,31.40
2023-04-14T06:41:57.274Z,31.45
2023-04-14T06:43:20.043Z,32.47
2023-04-14T06:44:42.679Z,32.33
2023-04-14T06:46:05.111Z,31.30
2023-04-14T06:47:29.881Z,33.13
2023-04-14T06:48:52.570Z,31.13
2023-04-14T06:50:18.784Z,30.98
2023-04-14T06:51:42.809Z,31.08
2023-04-14T06:53:06.461Z,30.27
2023-04-14T06:56:58.073Z,31.67
2023-04-14T06:58:21.897Z,30.55
2023-04-14T06:59:47.731Z,29.75
2023-04-14T07:01:10.244Z,31.30
2023-04-14T07:02:36.466Z,30.83
2023-04-14T07:03:59.637Z,31.58
2023-04-14T07:05:22.943Z,29.90
2023-04-14T07:06:46.526Z,29.25
2023-04-14T07:08:10.461Z,29.05
2023-04-14T07:09:35.273Z,31.52
2023-04-14T07:11:02.251Z,29.10
2023-04-14T07:12:24.783Z,30.73
2023-04-14T07:13:47.662Z,27.90
2023-04-14T07:15:11.536Z,27.30
2023-04-14T07:16:37.120Z,27.27
2023-04-14T07:18:01.301Z,25.42
2023-04-14T07:19:23.759Z,26.75
2023-04-14T07:20:46.891Z,25.95
2023-04-14T07:22:09.261Z,27.98
2023-04-14T07:23:35.850Z,26.20
2023-04-14T07:25:08.972Z,26.38
2023-04-14T07:26:31.287Z,26.90
2023-04-14T07:28:02.539Z,27.20
2023-04-14T07:29:27.357Z,27.67
2023-04-14T07:30:50.283Z,26.48
2023-04-14T07:32:13.586Z,26.35
2023-04-14T07:33:37.128Z,25.65
2023-04-14T07:35:01.643Z,25.42
2023-04-14T07:36:23.805Z,23.85
2023-04-14T07:37:46.013Z,26.42
2023-04-14T07:39:08.430Z,24.75
2023-04-14T07:40:34.947Z,26.60
2023-04-14T07:41:58.857Z,26.52
2023-04-14T07:43:21.401Z,27.42
2023-04-14T07:44:44.028Z,25.48
2023-04-14T07:46:07.960Z,25.52
2023-04-14T07:47:30.502Z,26.25
2023-04-14T07:48:55.591Z,27.33
2023-04-14T07:50:19.795Z,27.02
2023-04-14T07:51:42.525Z,26.25
2023-04-14T07:53:05.107Z,28.30
2023-04-14T07:54:30.483Z,26.85
2023-04-14T07:55:54.297Z,28.70
2023-04-14T07:57:16.509Z,27.45
2023-04-14T08:00:00.592Z,26.42
2023-04-14T08:01:25.889Z,26.45
2023-04-14T08:02:47.976Z,26.45
2023-04-14T08:04:11.108Z,26.83
2023-04-14T08:05:33.573Z,28.67
2023-04-14T08:06:55.866Z,26.35
2023-04-14T08:08:18.465Z,29.02
2023-04-14T08:09:41.229Z,27.63
2023-04-14T08:11:05.038Z,28.60
2023-04-14T08:12:29.819Z,28.80
2023-04-14T08:13:53.165Z,28.05
2023-04-14T08:15:15.704Z,27.20
2023-04-14T08:16:39.989Z,29.20
2023-04-14T08:18:03.180Z,28.50
2023-04-14T08:19:34.112Z,29.38
2023-04-14T08:21:18.231Z,28.17
2023-04-14T08:22:47.014Z,27.02
2023-04-14T08:24:09.959Z,28.63
2023-04-14T08:26:13.624Z,29.98
2023-04-14T08:28:13.342Z,30.23
2023-04-14T08:30:24.166Z,30.23
2023-04-14T08:31:50.143Z,28.10
2023-04-14T08:33:15.270Z,29.23
2023-04-14T08:35:37.933Z,28.15
2023-04-14T08:37:15.780Z,28.42
2023-04-14T08:41:25.159Z,27.00
2023-04-14T08:43:04.116Z,30.23
2023-04-14T08:45:12.336Z,29.27
2023-04-14T08:47:02.665Z,29.38
2023-04-14T08:49:04.528Z,27.90
2023-04-14T08:53:46.184Z,31.63
2023-04-14T08:59:12.067Z,30.85
2023-04-14T09:01:18.828Z,31.30
2023-04-14T09:03:12.978Z,44.53
2023-04-14T09:04:53.574Z,48.45
2023-04-14T09:06:27.218Z,46.25
2023-04-14T09:08:02.719Z,45.50
2023-04-14T09:09:27.355Z,35.53
2023-04-14T09:10:56.104Z,37.83
2023-04-14T09:12:19.429Z,35.78
2023-04-14T09:14:01.896Z,33.53
2023-04-14T09:15:29.432Z,33.88
2023-04-14T09:16:56.904Z,33.53
2023-04-14T09:18:19.449Z,34.25
2023-04-14T09:20:36.397Z,35.50
2023-04-14T09:21:52.248Z,36.03
2023-04-14T09:23:17.557Z,34.60
2023-04-14T09:24:40.045Z,37.75
2023-04-14T09:26:02.554Z,37.33
2023-04-14T09:27:26.459Z,37.17
2023-04-14T09:28:52.756Z,35.67
2023-04-14T09:30:22.232Z,42.20
2023-04-14T09:31:45.728Z,43.55
2023-04-14T09:33:09.195Z,41.22
2023-04-14T09:34:37.769Z,43.88
2023-04-14T09:36:00.139Z,45.72
2023-04-14T09:37:24.805Z,48.60
2023-04-14T09:38:49.490Z,59.83
2023-04-14T09:40:12.905Z,49.35
2023-04-14T09:41:35.833Z,49.92
2023-04-14T09:42:58.878Z,45.70
2023-04-14T09:44:25.879Z,44.88
2023-04-14T09:45:48.018Z,45.15
2023-04-14T09:47:16.512Z,44.05
2023-04-14T09:48:55.788Z,44.05
2023-04-14T09:50:18.295Z,42.95
2023-04-14T09:51:40.615Z,43.65
2023-04-14T09:53:05.869Z,46.47
2023-04-14T09:54:28.704Z,43.40
2023-04-14T09:55:53.438Z,39.83
2023-04-14T09:57:29.586Z,42.83
2023-04-14T09:58:51.953Z,40.28
2023-04-14T10:00:24.746Z,40.78
2023-04-14T10:02:10.266Z,41.10
2023-04-14T10:03:39.559Z,41.10
2023-04-14T10:05:06.538Z,43.33
2023-04-14T10:06:49.590Z,40.63
2023-04-14T10:08:18.833Z,44.10
2023-04-14T10:09:43.995Z,40.97
2023-04-14T10:11:38.288Z,44.58
2023-04-14T10:13:34.859Z,42.30
2023-04-14T10:17:05.387Z,44.67
2023-04-14T10:19:35.418Z,47.22
2023-04-14T10:22:19.157Z,45.35
2023-04-14T10:23:51.696Z,47.15
2023-04-14T10:25:44.179Z,49.47
2023-04-14T10:27:31.398Z,47.50
2023-04-14T10:29:03.461Z,45.75
2023-04-14T10:30:25.872Z,49.42
2023-04-14T10:31:50.552Z,45.75
2023-04-14T10:36:37.121Z,43.70
2023-04-14T10:37:59.793Z,47.35
2023-04-14T10:39:43.379Z,45.40
2023-04-14T10:41:07.678Z,46.03
2023-04-14T10:42:57.610Z,43.65
2023-04-14T10:46:50.605Z,44.00
2023-04-14T10:48:20.647Z,44.67
2023-04-14T10:49:46.469Z,45.50
2023-04-14T10:51:11.118Z,46.28
2023-04-14T10:52:40.859Z,49.40
2023-04-14T10:54:06.029Z,48.25
2023-04-14T10:55:29.869Z,50.45
2023-04-14T10:57:14.327Z,48.88
2023-04-14T10:58:38.555Z,51.83
2023-04-14T11:00:22.485Z,50.40
2023-04-14T11:01:59.723Z,49.58
2023-04-14T11:03:28.677Z,50.35
2023-04-14T11:05:09.245Z,50.60
2023-04-14T11:06:51.600Z,50.03
2023-04-14T11:08:23.795Z,50.72
2023-04-14T11:09:47.173Z,51.35
2023-04-14T11:11:14.211Z,52.55
2023-04-14T11:12:49.023Z,51.08
2023-04-14T11:14:14.206Z,52.50
2023-04-14T11:15:51.629Z,50.70
2023-04-14T11:17:22.123Z,52.38
2023-04-14T11:18:48.935Z,50.25
2023-04-14T11:20:15.979Z,51.45
2023-04-14T11:21:56.597Z,49.90
2023-04-14T11:23:29.358Z,51.03
2023-04-14T11:24:51.687Z,52.97
2023-04-14T11:26:14.702Z,51.75
2023-04-14T11:27:36.743Z,52.35
2023-04-14T11:29:00.443Z,50.97
2023-04-14T11:30:23.263Z,54.78
2023-04-14T11:31:46.740Z,51.83
2023-04-14T11:33:08.564Z,50.42
2023-04-14T11:34:30.049Z,50.88
2023-04-14T11:35:52.270Z,50.03
2023-04-14T11:37:14.679Z,51.88
2023-04-14T11:40:03.670Z,47.78
2023-04-14T11:41:27.229Z,50.15
2023-04-14T11:42:53.702Z,50.78
2023-04-14T11:44:18.500Z,49.63
2023-04-14T11:45:44.054Z,50.67
2023-04-14T11:47:06.282Z,49.65
2023-04-14T11:48:32.418Z,51.53
2023-04-14T11:49:56.142Z,50.20
2023-04-14T11:51:20.761Z,50.58
2023-04-14T11:52:50.704Z,49.25
2023-04-14T11:54:14.800Z,50.33
2023-04-14T11:55:36.987Z,50.08
2023-04-14T11:56:59.011Z,48.75
2023-04-14T11:58:23.887Z,48.53
2023-04-14T11:59:47.334Z,50.78
2023-04-14T12:01:10.792Z,51.05
2023-04-14T12:02:34.251Z,50.92
2023-04-14T12:04:21.661Z,50.97
2023-04-14T12:06:03.348Z,49.08
2023-04-14T12:07:39.853Z,48.67
2023-04-14T12:09:31.614Z,50.83
2023-04-14T12:11:31.860Z,50.47
2023-04-14T12:14:06.349Z,51.03
2023-04-14T12:18:46.477Z,49.63
2023-04-14T12:20:18.313Z,50.00
2023-04-14T12:21:54.389Z,50.17
2023-04-14T12:26:08.999Z,47.55
2023-04-14T12:28:31.323Z,47.40
2023-04-14T12:30:03.944Z,49.45
2023-04-14T12:34:18.419Z,50.08
2023-04-14T12:35:43.369Z,50.60
2023-04-14T12:37:12.285Z,49.72
2023-04-14T12:38:42.185Z,52.13
2023-04-14T12:40:14.047Z,50.47
2023-04-14T12:41:48.038Z,53.13
2023-04-14T12:43:36.791Z,51.88
2023-04-14T12:45:07.862Z,53.45
2023-04-14T12:47:20.566Z,52.13
2023-04-14T12:51:53.908Z,55.55
2023-04-14T12:54:24.266Z,55.35
2023-04-14T12:55:49.026Z,53.05
2023-04-14T12:57:36.689Z,54.75
2023-04-14T13:05:39.223Z,52.42
2023-04-14T13:07:46.229Z,56.42
2023-04-14T13:13:32.912Z,53.47
2023-04-14T13:15:00.682Z,55.60
2023-04-14T13:16:29.373Z,57.72
2023-04-14T13:20:39.945Z,58.45
2023-04-14T13:22:20.014Z,59.63
2023-04-14T13:24:24.663Z,60.85
2023-04-14T14:02:49.438Z,50.78
2023-04-14T14:04:26.994Z,53.05
2023-04-14T14:06:57.139Z,51.95
2023-04-14T14:08:22.563Z,51.75
2023-04-14T14:10:03.376Z,52.85
2023-04-14T14:11:29.535Z,52.78
2023-04-14T14:13:03.972Z,52.83
2023-04-14T14:14:31.435Z,53.78
2023-04-14T14:15:53.116Z,53.40
2023-04-14T14:17:22.743Z,53.95
2023-04-14T14:18:51.646Z,52.10
2023-04-14T14:20:14.183Z,51.05
2023-04-14T14:21:43.616Z,51.70
2023-04-14T14:23:06.587Z,49.83
2023-04-14T14:24:29.654Z,51.30
2023-04-14T14:25:53.798Z,53.17
2023-04-14T14:27:29.969Z,52.03
2023-04-14T14:28:55.100Z,49.88
2023-04-14T14:30:17.607Z,51.67
2023-04-14T14:31:40.066Z,50.57
2023-04-14T14:33:02.488Z,51.22
2023-04-14T14:34:26.111Z,51.22
2023-04-14T14:35:48.684Z,49.83
2023-04-14T14:37:15.553Z,48.70
2023-04-14T14:38:38.431Z,51.13
2023-04-14T14:40:01.281Z,51.05
2023-04-14T14:41:23.371Z,50.97
2023-04-14T14:42:45.541Z,51.72
2023-04-14T14:44:07.930Z,51.63
2023-04-14T14:45:31.886Z,51.80
2023-04-14T14:47:00.277Z,49.80
2023-04-14T14:48:26.888Z,50.58
2023-04-14T14:50:00.366Z,49.22
2023-04-14T14:51:24.301Z,50.05
2023-04-14T14:52:46.529Z,50.35
2023-04-14T14:54:10.303Z,51.47
2023-04-14T14:55:35.920Z,51.33
2023-04-14T14:57:01.613Z,50.50
2023-04-14T14:58:25.689Z,49.40
2023-04-14T14:59:54.315Z,50.75
2023-04-14T15:01:20.180Z,48.83
2023-04-14T15:02:43.763Z,49.67
2023-04-14T15:04:06.911Z,52.92
2023-04-14T15:06:03.164Z,51.22
2023-04-14T15:07:25.917Z,49.47
2023-04-14T15:08:49.302Z,48.03
2023-04-14T15:10:16.964Z,53.20
2023-04-14T15:12:17.646Z,51.03
2023-04-14T15:13:47.915Z,51.63
2023-04-14T15:15:11.659Z,51.72
2023-04-14T15:16:38.316Z,51.80
2023-04-14T15:18:00.875Z,52.38
2023-04-14T15:19:47.023Z,51.33
2023-04-14T15:22:29.978Z,51.00
2023-04-14T15:26:23.918Z,55.08
2023-04-14T15:28:13.693Z,53.42
2023-04-14T15:30:01.096Z,49.80
2023-04-14T15:31:44.123Z,53.80
2023-04-14T15:33:07.318Z,54.15
2023-04-14T15:35:04.212Z,52.50
2023-04-14T15:36:46.816Z,54.55
2023-04-14T15:40:03.252Z,49.65
2023-04-14T15:41:29.322Z,54.58
2023-04-14T15:42:56.673Z,53.05
2023-04-14T15:44:20.422Z,54.88
2023-04-14T15:46:36.942Z,54.50
2023-04-14T15:47:38.688Z,52.28
2023-04-14T15:49:05.556Z,56.03
2023-04-14T15:50:29.810Z,53.95
2023-04-14T15:52:00.921Z,55.90
2023-04-14T15:53:29.158Z,53.95
2023-04-14T15:54:52.754Z,54.70
2023-04-14T15:56:16.023Z,55.97
2023-04-14T15:57:38.457Z,52.70
2023-04-14T15:59:02.804Z,54.58
2023-04-14T16:00:27.846Z,55.45
2023-04-14T16:02:09.876Z,55.45
2023-04-14T16:03:36.016Z,54.42
2023-04-14T16:05:20.022Z,57.22
2023-04-14T16:07:16.834Z,57.17
2023-04-14T16:12:11.091Z,60.60
2023-04-14T16:13:57.919Z,61.08
2023-04-14T16:16:10.531Z,58.72
2023-04-14T16:17:45.820Z,58.72
2023-04-14T16:19:10.603Z,64.10
2023-04-14T16:20:38.031Z,65.00
2023-04-14T16:22:02.920Z,63.33
2023-04-14T16:23:31.107Z,66.32
2023-04-14T16:25:28.970Z,64.20
2023-04-14T16:26:59.345Z,62.80
2023-04-14T16:28:32.402Z,61.28
2023-04-14T16:32:57.472Z,61.17
2023-04-14T16:37:31.265Z,62.38
2023-04-14T16:39:23.499Z,62.72
2023-04-14T16:53:24.340Z,60.05
2023-04-14T16:54:54.461Z,64.72
2023-04-14T16:56:17.978Z,67.57
2023-04-14T16:57:50.360Z,67.30
2023-04-14T16:59:31.852Z,65.93
2023-04-14T17:01:06.028Z,66.15
2023-04-14T17:02:31.193Z,65.18
2023-04-14T17:03:53.362Z,67.72
2023-04-14T17:05:23.062Z,68.93
2023-04-14T17:07:08.152Z,67.45
2023-04-14T17:08:30.634Z,65.47
2023-04-14T17:10:04.355Z,67.68
2023-04-14T17:11:30.076Z,70.45
2023-04-14T17:12:52.796Z,68.35
2023-04-14T17:14:22.972Z,66.75
2023-04-14T17:15:45.720Z,68.47
2023-04-14T17:17:16.843Z,69.80
2023-04-14T17:18:54.458Z,66.88
2023-04-14T17:20:27.933Z,67.15
2023-04-14T17:22:02.156Z,65.72
2023-04-14T17:23:38.216Z,67.75
2023-04-14T17:25:01.396Z,69.15
2023-04-14T17:26:25.060Z,71.20
2023-04-14T17:27:51.233Z,70.05
2023-04-14T17:29:16.301Z,70.10
2023-04-14T17:30:41.779Z,68.35
2023-04-14T17:32:19.821Z,67.15
2023-04-14T17:33:47.540Z,67.57
2023-04-14T17:35:11.902Z,69.35
2023-04-14T17:36:39.200Z,68.55
2023-04-14T17:38:15.426Z,69.18
2023-04-14T17:39:51.920Z,70.35
2023-04-14T17:41:30.924Z,69.15
2023-04-14T17:43:51.770Z,70.88
2023-04-14T17:45:23.152Z,69.70
2023-04-14T17:46:59.544Z,70.13
2023-04-14T17:48:26.180Z,70.95
2023-04-14T17:49:50.104Z,70.53
2023-04-14T17:54:07.805Z,69.80
2023-04-14T17:55:40.100Z,72.75
2023-04-14T17:57:03.910Z,71.18
2023-04-14T17:58:26.433Z,71.18
2023-04-14T17:59:49.116Z,72.20
2023-04-14T18:01:15.136Z,68.65
2023-04-14T18:02:39.455Z,73.82
2023-04-14T18:04:06.757Z,73.57
2023-04-14T18:05:38.242Z,73.47
2023-04-14T18:07:02.720Z,72.70
2023-04-14T18:08:25.218Z,71.57
2023-04-14T18:09:48.511Z,74.00
2023-04-14T18:11:44.524Z,73.75
2023-04-14T18:12:57.350Z,73.95
2023-04-14T18:14:19.809Z,75.03
2023-04-14T18:15:42.808Z,75.30
2023-04-14T18:17:05.370Z,72.13
2023-04-14T18:18:27.664Z,75.18
2023-04-14T18:19:51.613Z,76.35
2023-04-14T18:21:14.554Z,74.65
2023-04-14T18:22:36.696Z,74.55
2023-04-14T18:25:27.109Z,74.40
2023-04-14T18:26:52.045Z,75.75
2023-04-14T18:28:13.983Z,74.05
2023-04-14T18:29:37.420Z,75.13
2023-04-14T18:30:59.867Z,74.53
2023-04-14T18:32:25.416Z,76.72
2023-04-14T18:33:47.871Z,76.00
2023-04-14T18:35:13.107Z,77.40
2023-04-14T18:36:35.347Z,78.38
2023-04-14T18:37:56.828Z,76.78
2023-04-14T18:39:19.300Z,76.15
2023-04-14T18:40:41.720Z,74.35
2023-04-14T18:42:03.956Z,76.72
2023-04-14T18:43:26.504Z,78.70
2023-04-14T18:44:48.673Z,74.15
2023-04-14T18:46:11.004Z,80.22
2023-04-14T18:48:58.215Z,78.80
2023-04-14T18:51:46.880Z,77.03
2023-04-14T18:53:16.796Z,82.68
2023-04-14T18:54:39.425Z,85.03
2023-04-14T18:56:49.207Z,82.07
2023-04-14T19:01:42.947Z,80.80
2023-04-14T19:03:27.349Z,82.28
2023-04-14T19:05:00.939Z,86.95
2023-04-14T19:06:27.826Z,85.47
2023-04-14T19:08:09.950Z,85.30
2023-04-14T19:12:28.739Z,80.93
2023-04-14T19:13:55.374Z,87.38
2023-04-14T19:15:20.376Z,87.93
2023-04-14T19:17:35.779Z,89.70
2023-04-14T19:22:51.860Z,84.88
2023-04-14T19:25:03.094Z,87.00
2023-04-14T19:27:09.191Z,87.55
2023-04-14T19:28:35.998Z,90.65
2023-04-14T19:29:58.610Z,95.05
2023-04-14T19:31:28.602Z,92.82
2023-04-14T19:32:52.192Z,93.63
2023-04-14T19:34:48.970Z,95.55
2023-04-14T19:36:46.731Z,94.72
2023-04-14T19:43:44.590Z,95.80
2023-04-14T19:48:53.115Z,90.00
2023-04-14T19:50:57.117Z,90.18
2023-04-14T19:52:43.574Z,95.22
2023-04-14T19:54:16.102Z,90.50
2023-04-14T19:56:15.092Z,90.97
2023-04-14T19:58:36.865Z,90.00
2023-04-14T20:00:12.917Z,92.50
2023-04-14T20:01:51.904Z,94.57
2023-04-14T20:03:20.676Z,92.75
2023-04-14T20:04:51.993Z,93.30
2023-04-14T20:06:20.518Z,92.60
2023-04-14T20:07:45.447Z,96.00
2023-04-14T20:09:53.564Z,94.00
2023-04-14T20:11:36.943Z,88.90
2023-04-14T20:13:11.330Z,91.82
2023-04-14T20:15:10.201Z,90.53
2023-04-14T20:18:36.478Z,91.35
2023-04-14T20:20:35.182Z,93.07
2023-04-14T20:24:08.258Z,86.88
2023-04-14T20:25:31.164Z,87.75
2023-04-14T20:26:56.707Z,87.85
2023-04-14T20:28:36.695Z,91.60
2023-04-14T20:30:56.036Z,91.53
2023-04-14T20:33:28.554Z,87.97
2023-04-14T20:35:52.672Z,88.55
2023-04-14T20:37:52.713Z,84.32
2023-04-14T21:06:51.133Z,90.95
2023-04-14T21:09:09.754Z,90.47
2023-04-14T21:29:12.786Z,91.10
2023-04-14T21:31:15.250Z,92.35
2023-04-14T21:36:27.926Z,93.25
2023-04-14T21:42:08.129Z,97.07
2023-04-14T21:44:35.792Z,99.65
2023-04-14T21:47:08.812Z,105.05
2023-04-14T21:49:13.380Z,100.28
2023-04-14T21:53:02.302Z,97.78
2023-04-14T21:54:26.752Z,102.10
2023-04-14T21:56:09.105Z,104.07
2023-04-14T21:57:45.675Z,107.28
2023-04-14T21:59:21.684Z,95.15
2023-04-14T22:01:07.658Z,104.25
2023-04-14T22:02:43.593Z,114.63
2023-04-14T22:04:07.656Z,112.25
2023-04-14T22:06:19.156Z,112.25
2023-04-14T22:08:26.698Z,103.28
2023-04-14T22:11:08.791Z,106.22
2023-04-14T22:12:33.198Z,111.00
2023-04-14T22:16:43.673Z,105.07
2023-04-14T22:18:24.478Z,108.32
2023-04-14T22:20:21.786Z,110.43
2023-04-14T22:21:44.481Z,106.88
2023-04-14T22:23:13.390Z,109.82
2023-04-14T22:24:45.083Z,103.38
2023-04-14T22:26:10.464Z,104.35
2023-04-14T22:27:42.971Z,105.78
2023-04-14T22:29:09.759Z,100.38
2023-04-14T22:30:32.505Z,107.03
2023-04-14T22:31:54.948Z,109.65
2023-04-14T22:33:17.564Z,106.90
2023-04-14T22:34:40.024Z,106.85
2023-04-14T22:36:12.800Z,99.93
2023-04-14T22:37:46.190Z,101.07
2023-04-14T22:39:14.334Z,94.35
2023-04-14T22:40:45.845Z,91.80
2023-04-14T22:42:15.100Z,99.72
2023-04-14T22:43:44.885Z,94.60
2023-04-14T22:45:08.651Z,90.03
2023-04-14T22:46:29.902Z,96.55
2023-04-14T22:47:53.955Z,93.10
2023-04-14T22:49:18.568Z,94.90
2023-04-14T22:51:15.451Z,95.90
2023-04-14T22:52:37.878Z,90.68
2023-04-14T22:54:00.889Z,91.43
2023-04-14T22:55:22.320Z,92.00
2023-04-14T22:56:44.872Z,92.40
2023-04-14T22:58:17.082Z,93.50
2023-04-14T22:59:39.981Z,92.78
2023-04-14T23:01:21.361Z,87.25
2023-04-14T23:03:07.328Z,89.90
2023-04-14T23:04:33.156Z,94.45
2023-04-14T23:06:45.487Z,94.65
2023-04-14T23:08:21.648Z,93.72
2023-04-14T23:09:50.087Z,91.55
2023-04-14T23:11:43.450Z,90.82
2023-04-14T23:13:05.963Z,86.65
2023-04-14T23:14:37.549Z,86.43
2023-04-14T23:15:59.849Z,85.18
2023-04-14T23:17:25.433Z,83.65
2023-04-14T23:18:57.783Z,82.93
2023-04-14T23:23:05.731Z,83.68
2023-04-14T23:24:43.881Z,77.20
2023-04-14T23:26:31.247Z,71.57
2023-04-14T23:28:59.655Z,74.32
2023-04-14T23:30:26.357Z,71.45
2023-04-14T23:38:18.297Z,62.70
2023-04-14T23:46:59.948Z,51.92
2023-04-14T23:48:39.444Z,47.53
2023-04-14T23:52:23.120Z,41.08
2023-04-14T23:53:47.490Z,38.05
2023-04-14T23:56:02.866Z,40.95